createdAt,value
2023-07-14T00:00:37.434Z,21.60
2023-07-14T00:03:04.632Z,21.60
2023-07-14T00:05:33.768Z,21.60
2023-07-14T00:08:00.934Z,21.60
2023-07-14T00:10:34.561Z,21.60
2023-07-14T00:13:05.607Z,21.50
2023-07-14T00:15:33.303Z,21.50
2023-07-14T00:18:12.777Z,21.40
2023-07-14T00:20:39.804Z,21.40
2023-07-14T00:23:12.946Z,21.30
2023-07-14T00:25:40.120Z,21.30
2023-07-14T00:28:15.057Z,21.30
2023-07-14T00:30:42.146Z,21.20
2023-07-14T00:33:13.928Z,21.20
2023-07-14T00:35:41.293Z,21.30
2023-07-14T00:38:08.540Z,21.30
2023-07-14T00:40:37.318Z,21.30
2023-07-14T00:43:05.373Z,21.40
2023-07-14T00:45:33.503Z,21.40
2023-07-14T00:48:05.350Z,21.50
2023-07-14T00:50:38.819Z,21.50
2023-07-14T00:53:19.767Z,21.50
2023-07-14T00:55:49.296Z,21.50
2023-07-14T00:58:26.835Z,21.50
2023-07-14T01:01:03.512Z,21.50
2023-07-14T01:03:31.374Z,21.50
2023-07-14T01:06:00.100Z,21.50
2023-07-14T01:08:27.626Z,21.50
2023-07-14T01:10:54.964Z,21.50
2023-07-14T01:13:23.043Z,21.60
2023-07-14T01:15:52.446Z,21.70
2023-07-14T01:18:19.685Z,21.70
2023-07-14T01:20:46.940Z,21.80
2023-07-14T01:23:23.188Z,21.80
2023-07-14T01:26:09.394Z,21.80
2023-07-14T01:28:36.346Z,21.80
2023-07-14T01:31:03.336Z,21.80
2023-07-14T01:33:30.193Z,21.80
2023-07-14T01:36:00.191Z,21.80
2023-07-14T01:38:27.556Z,21.70
2023-07-14T01:40:54.597Z,21.60
2023-07-14T01:43:22.505Z,21.60
2023-07-14T01:45:55.531Z,21.50
2023-07-14T01:48:25.778Z,21.50
2023-07-14T01:50:54.473Z,21.50
2023-07-14T01:53:29.833Z,21.50
2023-07-14T01:55:58.543Z,21.50
2023-07-14T01:58:28.666Z,21.50
2023-07-14T02:00:56.670Z,21.50
2023-07-14T02:03:45.020Z,21.40
2023-07-14T02:06:14.369Z,21.40
2023-07-14T02:08:46.085Z,21.40
2023-07-14T02:11:16.859Z,21.40
2023-07-14T02:13:43.795Z,21.40
2023-07-14T02:16:15.511Z,21.40
2023-07-14T02:18:43.482Z,21.40
2023-07-14T02:21:12.129Z,21.30
2023-07-14T02:23:40.402Z,21.30
2023-07-14T02:26:19.648Z,21.30
2023-07-14T02:28:46.535Z,21.30
2023-07-14T02:31:33.797Z,21.20
2023-07-14T02:34:00.984Z,21.20
2023-07-14T02:36:33.937Z,21.20
2023-07-14T02:39:02.442Z,21.20
2023-07-14T02:41:30.660Z,21.20
2023-07-14T02:44:02.507Z,21.20
2023-07-14T02:46:34.731Z,21.20
2023-07-14T02:49:01.782Z,21.20
2023-07-14T02:51:28.625Z,21.10
2023-07-14T02:53:55.489Z,21.10
2023-07-14T02:56:22.773Z,21.10
2023-07-14T02:58:51.264Z,21.00
2023-07-14T03:01:19.141Z,21.00
2023-07-14T03:03:47.410Z,21.10
2023-07-14T03:06:15.072Z,21.00
2023-07-14T03:08:42.070Z,21.00
2023-07-14T03:11:09.240Z,21.00
2023-07-14T03:13:39.140Z,21.00
2023-07-14T03:16:06.347Z,21.00
2023-07-14T03:18:33.436Z,21.10
2023-07-14T03:21:02.059Z,21.10
2023-07-14T03:23:29.235Z,21.10
2023-07-14T03:26:03.748Z,21.10
2023-07-14T03:28:30.885Z,21.10
2023-07-14T03:30:57.723Z,21.10
2023-07-14T03:33:24.905Z,21.10
2023-07-14T03:35:52.032Z,21.10
2023-07-14T03:38:18.947Z,21.10
2023-07-14T03:40:45.844Z,21.20
2023-07-14T03:43:12.754Z,21.20
2023-07-14T03:45:39.796Z,21.20
2023-07-14T03:48:06.901Z,21.20
2023-07-14T03:50:34.957Z,21.20
2023-07-14T03:53:02.173Z,21.20
2023-07-14T03:55:29.892Z,21.20
2023-07-14T03:58:03.695Z,21.20
2023-07-14T04:00:32.894Z,21.30
2023-07-14T04:03:00.133Z,21.30
2023-07-14T04:05:27.672Z,21.40
2023-07-14T04:07:58.167Z,21.40
2023-07-14T04:10:25.104Z,21.50
2023-07-14T04:12:52.094Z,21.50
2023-07-14T04:15:20.754Z,21.60
2023-07-14T04:17:47.682Z,21.60
2023-07-14T04:20:14.564Z,21.60
2023-07-14T04:22:42.858Z,21.70
2023-07-14T04:25:10.514Z,21.80
2023-07-14T04:27:38.702Z,21.80
2023-07-14T04:30:06.072Z,21.90
2023-07-14T04:32:32.939Z,22.00
2023-07-14T04:34:59.848Z,22.10
2023-07-14T04:37:26.823Z,22.10
2023-07-14T04:39:53.696Z,22.20
2023-07-14T04:42:20.573Z,22.40
2023-07-14T04:44:47.414Z,22.50
2023-07-14T04:47:14.313Z,22.70
2023-07-14T04:49:41.365Z,22.90
2023-07-14T04:52:08.284Z,23.00
2023-07-14T04:54:36.431Z,23.20
2023-07-14T04:57:03.451Z,23.30
2023-07-14T04:59:30.341Z,23.40
2023-07-14T05:01:58.105Z,23.50
2023-07-14T05:04:27.698Z,23.70
2023-07-14T05:06:54.562Z,23.70
2023-07-14T05:09:21.957Z,23.70
2023-07-14T05:11:48.926Z,23.80
2023-07-14T05:14:15.820Z,23.80
2023-07-14T05:16:42.767Z,23.90
2023-07-14T05:19:09.663Z,23.90
2023-07-14T05:21:36.557Z,23.80
2023-07-14T05:24:05.252Z,23.80
2023-07-14T05:26:32.297Z,23.80
2023-07-14T05:28:59.160Z,23.80
2023-07-14T05:31:26.075Z,23.80
2023-07-14T05:33:52.905Z,24.10
2023-07-14T05:36:19.749Z,24.90
2023-07-14T05:38:46.657Z,25.10
2023-07-14T05:41:13.508Z,25.20
2023-07-14T05:43:40.421Z,25.20
2023-07-14T05:46:07.272Z,25.50
2023-07-14T05:48:34.156Z,26.10
2023-07-14T05:51:01.741Z,26.90
2023-07-14T05:53:28.635Z,27.30
2023-07-14T05:55:57.573Z,27.70
2023-07-14T05:58:24.447Z,28.20
2023-07-14T06:00:53.778Z,28.80
2023-07-14T06:03:20.730Z,29.20
2023-07-14T06:05:48.680Z,29.30
2023-07-14T06:08:16.120Z,29.30
2023-07-14T06:10:43.015Z,29.80
2023-07-14T06:13:09.920Z,30.60
2023-07-14T06:15:38.132Z,31.40
2023-07-14T06:18:05.309Z,32.00
2023-07-14T06:20:32.459Z,32.50
2023-07-14T06:22:59.642Z,33.00
2023-07-14T06:25:26.541Z,33.60
2023-07-14T06:27:53.436Z,34.00
2023-07-14T06:30:20.357Z,34.40
2023-07-14T06:32:48.940Z,34.80
2023-07-14T06:35:16.159Z,35.20
2023-07-14T06:37:43.050Z,35.60
2023-07-14T06:40:10.391Z,36.00
2023-07-14T06:42:37.947Z,36.30
2023-07-14T06:45:05.154Z,36.50
2023-07-14T06:47:33.668Z,36.80
2023-07-14T06:50:01.129Z,37.10
2023-07-14T06:52:28.433Z,37.30
2023-07-14T06:54:55.409Z,37.50
2023-07-14T06:57:22.289Z,37.70
2023-07-14T06:59:49.226Z,37.90
2023-07-14T07:02:16.376Z,38.30
2023-07-14T07:04:43.604Z,38.50
2023-07-14T07:07:10.706Z,38.50
2023-07-14T07:09:37.648Z,38.40
2023-07-14T07:12:06.171Z,38.20
2023-07-14T07:14:33.180Z,38.00
2023-07-14T07:17:00.221Z,37.70
2023-07-14T07:19:27.242Z,37.50
2023-07-14T07:21:55.297Z,37.40
2023-07-14T07:24:22.274Z,37.30
2023-07-14T07:26:49.192Z,37.40
2023-07-14T07:29:16.386Z,37.50
2023-07-14T07:31:43.284Z,37.70
2023-07-14T07:34:10.131Z,38.20
2023-07-14T07:36:37.013Z,38.50
2023-07-14T07:39:03.984Z,38.90
2023-07-14T07:41:31.116Z,39.00
2023-07-14T07:43:57.973Z,39.20
2023-07-14T07:46:27.131Z,39.20
2023-07-14T07:48:54.065Z,39.00
2023-07-14T07:51:21.482Z,39.10
2023-07-14T07:53:48.470Z,39.10
2023-07-14T07:56:16.087Z,39.00
2023-07-14T07:58:44.047Z,39.00
2023-07-14T08:01:14.824Z,38.80
2023-07-14T08:03:42.103Z,38.20
2023-07-14T08:06:09.052Z,37.60
2023-07-14T08:08:35.899Z,36.50
2023-07-14T08:11:03.602Z,35.80
2023-07-14T08:13:31.028Z,35.10
2023-07-14T08:15:58.838Z,34.30
2023-07-14T08:18:26.310Z,33.80
2023-07-14T08:20:53.290Z,33.80
2023-07-14T08:23:21.326Z,34.50
2023-07-14T08:26:01.733Z,34.80
2023-07-14T08:28:29.287Z,34.80
2023-07-14T08:30:58.738Z,34.60
2023-07-14T08:33:26.676Z,34.40
2023-07-14T08:35:54.150Z,34.30
2023-07-14T08:38:21.635Z,34.10
2023-07-14T08:40:50.333Z,34.50
2023-07-14T08:43:31.819Z,35.40
2023-07-14T08:45:58.862Z,36.10
2023-07-14T08:48:29.648Z,36.70
2023-07-14T08:50:58.722Z,37.40
2023-07-14T08:53:31.147Z,38.10
2023-07-14T08:56:05.208Z,38.10
2023-07-14T08:58:36.588Z,38.10
2023-07-14T09:01:23.007Z,38.70
2023-07-14T09:03:53.332Z,39.10
2023-07-14T09:06:31.942Z,38.90
2023-07-14T09:08:59.247Z,38.40
2023-07-14T09:11:36.291Z,37.70
2023-07-14T09:14:29.539Z,37.10
2023-07-14T09:17:16.865Z,36.70
2023-07-14T09:19:43.725Z,36.50
2023-07-14T09:22:40.145Z,36.50
2023-07-14T09:25:07.086Z,36.00
2023-07-14T09:27:34.029Z,35.30
2023-07-14T09:30:01.225Z,34.70
2023-07-14T09:32:28.215Z,34.50
2023-07-14T09:34:59.367Z,33.90
2023-07-14T09:37:28.921Z,33.80
2023-07-14T09:40:04.552Z,33.80
2023-07-14T09:42:36.716Z,34.30
2023-07-14T09:45:25.023Z,35.00
2023-07-14T09:47:59.675Z,34.80
2023-07-14T09:50:27.106Z,34.40
2023-07-14T09:52:56.391Z,34.30
2023-07-14T09:55:23.805Z,33.90
2023-07-14T09:58:10.005Z,33.90
2023-07-14T10:00:41.603Z,33.80
2023-07-14T10:03:22.871Z,33.70
2023-07-14T10:05:59.452Z,33.30
2023-07-14T10:08:45.892Z,32.90
2023-07-14T10:11:16.066Z,32.50
2023-07-14T10:13:45.415Z,32.20
2023-07-14T10:16:16.483Z,32.00
2023-07-14T10:18:55.442Z,32.10
2023-07-14T10:21:30.348Z,32.00
2023-07-14T10:23:58.321Z,32.10
2023-07-14T10:26:27.718Z,31.90
2023-07-14T10:28:56.552Z,31.80
2023-07-14T10:31:23.529Z,31.70
2023-07-14T10:34:09.620Z,31.70
2023-07-14T10:36:38.931Z,31.80
2023-07-14T10:39:14.719Z,31.90
2023-07-14T10:41:44.065Z,32.10
2023-07-14T10:44:14.965Z,32.30
2023-07-14T10:46:44.527Z,32.40
2023-07-14T10:49:17.410Z,32.40
2023-07-14T10:51:47.210Z,32.50
2023-07-14T10:54:27.306Z,32.50
2023-07-14T10:57:01.402Z,32.60
2023-07-14T10:59:31.023Z,32.90
2023-07-14T11:02:03.587Z,33.20
2023-07-14T11:04:35.571Z,33.50
2023-07-14T11:07:04.107Z,33.70
2023-07-14T11:09:32.034Z,33.70
2023-07-14T11:12:01.851Z,34.20
2023-07-14T11:14:28.678Z,34.50
2023-07-14T11:16:59.294Z,34.70
2023-07-14T11:20:00.224Z,34.50
2023-07-14T11:22:27.053Z,34.30
2023-07-14T11:24:59.854Z,34.20
2023-07-14T11:27:29.473Z,34.30
2023-07-14T11:30:22.702Z,34.50
2023-07-14T11:32:52.404Z,34.50
2023-07-14T11:35:19.239Z,34.50
2023-07-14T11:37:46.135Z,34.60
2023-07-14T11:40:21.623Z,34.70
2023-07-14T11:42:54.034Z,34.70
2023-07-14T11:45:23.346Z,34.90
2023-07-14T11:47:50.721Z,35.00
2023-07-14T11:50:38.179Z,35.20
2023-07-14T11:53:08.646Z,35.50
2023-07-14T11:55:37.969Z,35.70
2023-07-14T11:58:10.793Z,35.60
2023-07-14T12:00:46.320Z,35.00
2023-07-14T12:03:34.291Z,34.60
2023-07-14T12:06:21.115Z,34.50
2023-07-14T12:09:12.098Z,34.30
2023-07-14T12:11:41.981Z,34.00
2023-07-14T12:14:29.464Z,33.60
2023-07-14T12:16:56.783Z,33.40
2023-07-14T12:19:33.995Z,33.20
2023-07-14T12:22:03.939Z,33.00
2023-07-14T12:24:32.639Z,33.00
2023-07-14T12:26:59.470Z,33.10
2023-07-14T12:29:26.286Z,33.10
2023-07-14T12:31:54.930Z,33.10
2023-07-14T12:34:24.435Z,33.10
2023-07-14T12:36:51.593Z,33.20
2023-07-14T12:39:18.442Z,33.20
2023-07-14T12:41:47.671Z,33.20
2023-07-14T12:44:34.697Z,33.30
2023-07-14T12:47:01.696Z,33.30
2023-07-14T12:49:34.509Z,33.20
2023-07-14T12:52:06.056Z,33.20
2023-07-14T12:54:32.893Z,33.30
2023-07-14T12:57:01.446Z,33.50
2023-07-14T12:59:30.562Z,33.50
2023-07-14T13:01:57.597Z,33.50
2023-07-14T13:04:25.007Z,33.40
2023-07-14T13:06:56.275Z,33.30
2023-07-14T13:09:25.983Z,33.20
2023-07-14T13:11:53.139Z,33.00
2023-07-14T13:14:21.413Z,32.90
2023-07-14T13:16:48.365Z,32.80
2023-07-14T13:19:35.853Z,32.80
2023-07-14T13:22:03.469Z,32.70
2023-07-14T13:24:32.126Z,32.60
2023-07-14T13:27:00.193Z,32.40
2023-07-14T13:29:28.466Z,32.40
2023-07-14T13:31:57.836Z,32.50
2023-07-14T13:34:26.147Z,32.50
2023-07-14T13:36:54.040Z,32.50
2023-07-14T13:39:23.919Z,32.50
2023-07-14T13:41:53.515Z,32.50
2023-07-14T13:44:31.336Z,32.40
2023-07-14T13:47:03.515Z,32.30
2023-07-14T13:49:30.548Z,32.30
2023-07-14T13:51:57.450Z,32.20
2023-07-14T13:54:24.282Z,32.10
2023-07-14T13:56:51.145Z,32.20
2023-07-14T13:59:19.508Z,32.20
2023-07-14T14:01:47.470Z,32.30
2023-07-14T14:04:15.144Z,32.20
2023-07-14T14:06:43.137Z,32.10
2023-07-14T14:09:21.109Z,32.20
2023-07-14T14:11:51.586Z,32.20
2023-07-14T14:14:18.897Z,32.20
2023-07-14T14:16:48.169Z,32.30
2023-07-14T14:19:19.750Z,32.20
2023-07-14T14:21:48.353Z,32.20
2023-07-14T14:24:15.198Z,32.20
2023-07-14T14:26:42.048Z,32.20
2023-07-14T14:29:08.879Z,32.20
2023-07-14T14:31:35.803Z,32.30
2023-07-14T14:34:02.847Z,32.30
2023-07-14T14:36:29.705Z,32.30
2023-07-14T14:38:56.582Z,32.30
2023-07-14T14:41:28.462Z,32.20
2023-07-14T14:43:56.157Z,32.20
2023-07-14T14:46:23.632Z,32.20
2023-07-14T14:48:50.603Z,32.20
2023-07-14T14:51:17.480Z,32.10
2023-07-14T14:53:44.371Z,32.10
2023-07-14T14:56:15.880Z,32.10
2023-07-14T14:58:42.841Z,32.10
2023-07-14T15:01:18.335Z,32.10
2023-07-14T15:03:46.120Z,32.00
2023-07-14T15:06:13.592Z,31.80
2023-07-14T15:08:40.593Z,31.80
2023-07-14T15:11:10.625Z,31.80
2023-07-14T15:13:37.463Z,31.90
2023-07-14T15:16:04.610Z,32.00
2023-07-14T15:18:31.566Z,32.10
2023-07-14T15:21:00.166Z,32.10
2023-07-14T15:23:27.329Z,32.10
2023-07-14T15:25:55.446Z,32.10
2023-07-14T15:28:24.423Z,31.90
2023-07-14T15:30:51.241Z,31.90
2023-07-14T15:33:18.650Z,31.80
2023-07-14T15:35:57.323Z,31.90
2023-07-14T15:38:25.194Z,31.90
2023-07-14T15:40:52.572Z,31.90
2023-07-14T15:43:21.022Z,31.90
2023-07-14T15:45:51.612Z,32.00
2023-07-14T15:48:39.320Z,31.90
2023-07-14T15:51:19.108Z,31.90
2023-07-14T15:53:46.194Z,32.00
2023-07-14T15:56:15.853Z,32.00
2023-07-14T15:58:42.912Z,31.90
2023-07-14T16:01:26.497Z,31.80
2023-07-14T16:03:56.321Z,31.70
2023-07-14T16:06:24.091Z,31.70
2023-07-14T16:08:51.727Z,31.70
2023-07-14T16:11:18.719Z,31.70
2023-07-14T16:13:46.435Z,31.80
2023-07-14T16:16:13.748Z,31.70
2023-07-14T16:18:40.809Z,31.60
2023-07-14T16:21:09.099Z,31.50
2023-07-14T16:23:36.033Z,31.50
2023-07-14T16:26:02.877Z,31.50
2023-07-14T16:28:29.668Z,31.50
2023-07-14T16:30:56.577Z,31.50
2023-07-14T16:33:23.397Z,31.40
2023-07-14T16:35:51.576Z,31.40
2023-07-14T16:38:20.128Z,31.40
2023-07-14T16:40:47.450Z,31.30
2023-07-14T16:43:14.728Z,31.30
2023-07-14T16:45:48.522Z,31.20
2023-07-14T16:48:15.471Z,31.10
2023-07-14T16:50:42.332Z,31.20
2023-07-14T16:53:13.721Z,31.20
2023-07-14T16:55:42.409Z,31.20
2023-07-14T16:58:15.822Z,31.10
2023-07-14T17:00:44.569Z,31.10
2023-07-14T17:03:14.276Z,31.10
2023-07-14T17:05:41.099Z,31.00
2023-07-14T17:08:18.432Z,31.00
2023-07-14T17:10:45.344Z,31.00
2023-07-14T17:13:25.434Z,31.00
2023-07-14T17:15:53.793Z,31.00
2023-07-14T17:18:21.725Z,30.90
2023-07-14T17:20:49.658Z,30.80
2023-07-14T17:23:24.210Z,30.80
2023-07-14T17:25:51.899Z,30.80
2023-07-14T17:28:20.132Z,30.70
2023-07-14T17:30:54.704Z,30.60
2023-07-14T17:33:22.951Z,30.50
2023-07-14T17:35:54.038Z,30.40
2023-07-14T17:38:21.422Z,30.20
2023-07-14T17:40:48.300Z,30.10
2023-07-14T17:43:22.324Z,30.00
2023-07-14T17:45:49.602Z,29.80
2023-07-14T17:48:16.913Z,29.70
2023-07-14T17:50:46.423Z,29.70
2023-07-14T17:53:16.417Z,29.60
2023-07-14T17:55:43.487Z,29.50
2023-07-14T17:58:11.670Z,29.40
2023-07-14T18:00:38.724Z,29.30
2023-07-14T18:03:05.852Z,29.20
2023-07-14T18:05:32.713Z,29.10
2023-07-14T18:08:00.918Z,29.00
2023-07-14T18:10:28.815Z,28.90
2023-07-14T18:12:57.060Z,28.80
2023-07-14T18:15:27.266Z,28.70
2023-07-14T18:17:58.070Z,28.60
2023-07-14T18:20:27.631Z,28.50
2023-07-14T18:22:55.902Z,28.50
2023-07-14T18:25:23.718Z,28.30
2023-07-14T18:27:52.014Z,28.30
2023-07-14T18:30:22.992Z,28.20
2023-07-14T18:32:49.998Z,28.10
2023-07-14T18:35:23.068Z,27.90
2023-07-14T18:37:50.068Z,27.90
2023-07-14T18:40:20.567Z,27.70
2023-07-14T18:42:47.549Z,27.60
2023-07-14T18:45:24.598Z,27.50
2023-07-14T18:47:51.962Z,27.40
2023-07-14T18:50:19.569Z,27.30
2023-07-14T18:52:46.901Z,27.20
2023-07-14T18:55:17.914Z,27.10
2023-07-14T18:57:45.141Z,27.00
2023-07-14T19:00:18.042Z,26.90
2023-07-14T19:02:44.959Z,26.80
2023-07-14T19:05:13.650Z,26.70
2023-07-14T19:07:45.078Z,26.70
2023-07-14T19:10:13.396Z,26.60
2023-07-14T19:12:41.088Z,26.60
2023-07-14T19:15:19.486Z,26.50
2023-07-14T19:17:47.817Z,26.40
2023-07-14T19:20:16.338Z,26.40
2023-07-14T19:22:46.968Z,26.30
2023-07-14T19:25:20.842Z,26.30
2023-07-14T19:27:49.024Z,26.20
2023-07-14T19:30:16.552Z,26.10
2023-07-14T19:32:44.312Z,26.10
2023-07-14T19:35:17.966Z,26.00
2023-07-14T19:37:47.820Z,26.00
2023-07-14T19:40:18.589Z,25.90
2023-07-14T19:42:46.609Z,25.80
2023-07-14T19:45:17.251Z,25.80
2023-07-14T19:47:46.904Z,25.80
2023-07-14T19:50:17.880Z,25.70
2023-07-14T19:52:45.645Z,25.70
2023-07-14T19:55:22.744Z,25.60
2023-07-14T19:57:55.589Z,25.60
2023-07-14T20:00:23.731Z,25.60
2023-07-14T20:02:51.004Z,25.50
2023-07-14T20:05:20.922Z,25.40
2023-07-14T20:07:51.482Z,25.40
2023-07-14T20:10:23.279Z,25.40
2023-07-14T20:12:52.465Z,25.40
2023-07-14T20:15:22.863Z,25.40
2023-07-14T20:17:51.058Z,25.30
2023-07-14T20:20:18.186Z,25.40
2023-07-14T20:22:46.871Z,25.30
2023-07-14T20:25:14.230Z,25.30
2023-07-14T20:27:41.424Z,25.20
2023-07-14T20:30:20.186Z,25.20
2023-07-14T20:32:47.876Z,25.20
2023-07-14T20:35:15.672Z,25.10
2023-07-14T20:37:42.507Z,25.10
2023-07-14T20:40:12.014Z,25.10
2023-07-14T20:42:38.981Z,25.00
2023-07-14T20:45:16.297Z,25.00
2023-07-14T20:47:43.531Z,25.00
2023-07-14T20:50:15.087Z,24.90
2023-07-14T20:52:51.027Z,24.90
2023-07-14T20:55:20.868Z,24.90
2023-07-14T20:57:47.714Z,24.80
2023-07-14T21:00:15.163Z,24.80
2023-07-14T21:02:42.039Z,24.80
2023-07-14T21:05:09.668Z,24.80
2023-07-14T21:07:36.668Z,24.70
2023-07-14T21:10:03.767Z,24.70
2023-07-14T21:12:30.592Z,24.60
2023-07-14T21:14:57.503Z,24.60
2023-07-14T21:17:24.856Z,24.60
2023-07-14T21:19:52.060Z,24.60
2023-07-14T21:22:20.017Z,24.60
2023-07-14T21:24:47.237Z,24.60
2023-07-14T21:27:15.477Z,24.50
2023-07-14T21:29:42.490Z,24.50
2023-07-14T21:32:21.609Z,24.50
2023-07-14T21:34:48.913Z,24.40
2023-07-14T21:37:16.557Z,24.40
2023-07-14T21:39:43.429Z,24.40
2023-07-14T21:42:14.389Z,24.40
2023-07-14T21:44:41.410Z,24.30
2023-07-14T21:47:10.607Z,24.30
2023-07-14T21:49:37.540Z,24.30
2023-07-14T21:52:04.986Z,24.30
2023-07-14T21:54:32.140Z,24.30
2023-07-14T21:56:59.219Z,24.30
2023-07-14T21:59:26.802Z,24.30
2023-07-14T22:01:54.090Z,24.30
2023-07-14T22:04:22.976Z,24.20
2023-07-14T22:06:50.231Z,24.30
2023-07-14T22:09:18.744Z,24.20
2023-07-14T22:11:46.726Z,24.20
2023-07-14T22:14:14.415Z,24.20
2023-07-14T22:16:41.319Z,24.20
2023-07-14T22:19:09.628Z,24.20
2023-07-14T22:21:36.471Z,24.20
2023-07-14T22:24:03.375Z,24.20
2023-07-14T22:26:30.278Z,24.20
2023-07-14T22:28:57.097Z,24.20
2023-07-14T22:31:29.016Z,24.20
2023-07-14T22:33:57.918Z,24.20
2023-07-14T22:36:24.898Z,24.20
2023-07-14T22:38:52.222Z,24.20
2023-07-14T22:41:22.127Z,24.20
2023-07-14T22:43:50.725Z,24.20
2023-07-14T22:46:18.095Z,24.20
2023-07-14T22:48:46.698Z,24.10
2023-07-14T22:51:16.256Z,24.10
2023-07-14T22:53:43.113Z,24.00
2023-07-14T22:56:11.922Z,24.00
2023-07-14T22:58:39.130Z,24.00
2023-07-14T23:01:10.316Z,24.00
2023-07-14T23:03:37.214Z,24.00
2023-07-14T23:06:07.729Z,23.90
2023-07-14T23:08:34.936Z,23.90
2023-07-14T23:11:03.057Z,23.90
2023-07-14T23:13:31.262Z,23.90
2023-07-14T23:15:58.684Z,23.90
2023-07-14T23:18:26.638Z,23.80
2023-07-14T23:20:56.469Z,23.80
2023-07-14T23:23:23.600Z,23.80
2023-07-14T23:25:51.695Z,23.80
2023-07-14T23:28:18.825Z,23.80
2023-07-14T23:31:05.930Z,23.80
2023-07-14T23:33:32.770Z,23.80
2023-07-14T23:36:00.550Z,23.80
2023-07-14T23:38:28.644Z,23.70
2023-07-14T23:40:56.447Z,23.70
2023-07-14T23:43:23.257Z,23.70
2023-07-14T23:45:50.420Z,23.70
2023-07-14T23:48:17.900Z,23.70
2023-07-14T23:50:46.343Z,23.70
2023-07-14T23:53:33.970Z,23.60
2023-07-14T23:56:01.425Z,23.60
2023-07-14T23:58:30.489Z,23.60
